• Join FlightAware (Why Join?)
  • Login
  • US Flag 
07:58AM EDT


 

Airport Tracker/Info


-or-


 

Live Flight TrackerFlight Track Log ✈ UAL33 ✈ 22-Jul-2013 ✈ KIAH - KORD

Flight Track Log - Related Links

Times and Time Zones

All times are in EDT time to prevent confusion due to time zone crossing. See the UAL33 flight status page for this flight to view local times or setup timezone preferences in your user account.

Time Position Orientation Groundspeed Altitude Reporting Facility
EDT Latitude Longitude Course Direction KTS MPH feet Rate Location/Type
05:41PM 29.9603 -95.3450 169° South 163 188 800  Level FlightAware ADS-B
05:41PM 29.9581 -95.3442 163° South 162 186 900 2,580 Climbing FlightAware ADS-B
05:41PM 29.9483 -95.3459 189° South 164 189 1,500 2,640 Climbing FlightAware ADS-B
05:41PM 29.9450 -95.3485 214° Southwest 174 200 1,700 1,500 Climbing FlightAware ADS-B
05:42PM 29.9414 -95.3535 230° Southwest 185 213 1,800 960 Climbing FlightAware ADS-B
05:42PM 29.9395 -95.3584 246° West 196 226 1,900 1,620 Climbing FlightAware ADS-B
05:42PM 29.9385 -95.3647 260° West 210 242 2,100 1,800 Climbing FlightAware ADS-B
05:42PM 29.9385 -95.3692 270° West 219 252 2,200 1,980 Climbing FlightAware ADS-B
05:42PM 29.9395 -95.3751 281° West 227 261 2,400 2,640 Climbing FlightAware ADS-B
05:42PM 29.9410 -95.3795 291° West 233 268 2,600 2,520 Climbing FlightAware ADS-B
05:42PM 29.9428 -95.3836 297° West 240 276 2,700 1,680 Climbing FlightAware ADS-B
05:42PM 29.9449 -95.3870 305° West 245 282 2,800 1,980 Climbing FlightAware ADS-B
05:42PM 29.9491 -95.3921 314° West 255 293 3,000 2,220 Climbing FlightAware ADS-B
05:42PM 29.9523 -95.3951 321° Northwest 262 302 3,100 2,520 Climbing FlightAware ADS-B
05:42PM 29.9559 -95.3976 329° Northwest 267 307 3,300 2,640 Climbing FlightAware ADS-B
05:42PM 29.9618 -95.4009 334° Northwest 275 316 3,500 1,980 Climbing FlightAware ADS-B
05:42PM 29.9668 -95.4026 344° North 279 321 3,600 1,680 Climbing FlightAware ADS-B
05:42PM 29.9711 -95.4036 349° North 282 325 3,700 960 Climbing FlightAware ADS-B
05:42PM 29.9751 -95.4041 354° North 285 328 3,700 840 Level FlightAware ADS-B
05:43PM 29.9799 -95.4042 359° North 287 330 3,800 1,680 Climbing FlightAware ADS-B
05:43PM 29.9846 -95.4037 North 288 331 3,900 720 Climbing FlightAware ADS-B
05:43PM 29.9912 -95.4021 12° North 289 333 3,900 660 Level FlightAware ADS-B
05:43PM 29.9965 -95.4001 18° North 289 333 4,000 540 Climbing FlightAware ADS-B
05:43PM 30.0045 -95.3964 22° Northeast 286 329 4,000  Level FlightAware ADS-B
05:43PM 30.0241 -95.3865 24° Northeast 284 327 4,000  Level FlightAware ADS-B
05:43PM 30.0429 -95.3772 23° Northeast 284 327 4,000  Level FlightAware ADS-B
05:44PM 30.0614 -95.3679 24° Northeast 287 330 4,000 -240 Level FlightAware ADS-B
05:44PM 30.0797 -95.3586 24° Northeast 287 330 3,900  Descending FlightAware ADS-B
05:44PM 30.0986 -95.3490 24° Northeast 286 329 4,000 180 Climbing FlightAware ADS-B
05:44PM 30.1176 -95.3393 24° Northeast 285 328 4,000 360 Level FlightAware ADS-B
05:45PM 30.1366 -95.3298 23° Northeast 288 331 4,200 1,920 Climbing FlightAware ADS-B
05:45PM 30.1554 -95.3203 24° Northeast 287 330 5,000 3,360 Climbing FlightAware ADS-B
05:45PM 30.1644 -95.3160 22° Northeast 284 327 5,500 3,480 Climbing FlightAware ADS-B
05:45PM 30.1693 -95.3140 19° North 285 328 5,700 3,660 Climbing FlightAware ADS-B
05:45PM 30.1808 -95.3100 17° North 287 330 6,300 3,960 Climbing FlightAware ADS-B
05:45PM 30.1891 -95.3073 16° North 289 333 6,700 3,600 Climbing FlightAware ADS-B
05:46PM 30.2110 -95.3004 15° North 294 338 7,700 3,420 Climbing FlightAware ADS-B
05:46PM 30.2320 -95.2937 15° North 299 344 8,600 3,060 Climbing FlightAware ADS-B
05:46PM 30.2525 -95.2869 16° North 306 352 9,300 3,060 Climbing FlightAware ADS-B
05:47PM 30.2953 -95.2726 16° North 317 365 10,900 3,300 Climbing FlightAware ADS-B
05:47PM 30.3387 -95.2574 17° North 324 373 12,700 3,480 Climbing FlightAware ADS-B
05:48PM 30.3831 -95.2416 17° North 331 381 14,500 2,880 Climbing FlightAware ADS-B
05:48PM 30.4299 -95.2252 17° North 347 399 15,700 2,340 Climbing FlightAware ADS-B
05:49PM 30.4787 -95.2078 17° North 367 422 16,900 2,400 Climbing FlightAware ADS-B
05:49PM 30.5260 -95.1911 17° North 385 443 18,100 2,100 Climbing FlightAware ADS-B
05:49PM 30.5445 -95.1833 20° North 398 458 18,300 960 Climbing FlightAware ADS-B
05:50PM 30.5565 -95.1773 23° Northeast 407 468 18,400 1,260 Climbing FlightAware ADS-B
05:50PM 30.5689 -95.1703 26° Northeast 415 478 18,600 1,500 Climbing FlightAware ADS-B
05:50PM 30.5908 -95.1555 30° Northeast 427 491 18,900 1,380 Climbing FlightAware ADS-B
05:50PM 30.6418 -95.1162 34° Northeast 452 520 19,600 1,380 Climbing FlightAware ADS-B
05:51PM 30.6962 -95.0748 33° Northeast 476 548 20,300 1,380 Climbing FlightAware ADS-B
05:51PM 30.7530 -95.0314 33° Northeast 493 567 21,000 1,740 Climbing FlightAware ADS-B
05:52PM 30.8143 -94.9847 33° Northeast 501 577 22,100 1,980 Climbing FlightAware ADS-B
05:52PM 30.8728 -94.9398 33° Northeast 507 583 23,100 1,920 Climbing FlightAware ADS-B
05:53PM 30.9353 -94.8919 33° Northeast 515 593 24,100 1,740 Climbing FlightAware ADS-B
05:53PM 30.9952 -94.8456 34° Northeast 520 598 24,900 1,680 Climbing FlightAware ADS-B
05:54PM 31.0561 -94.7988 33° Northeast 524 603 25,800 1,680 Climbing FlightAware ADS-B
05:54PM 31.1179 -94.7513 33° Northeast 528 608 26,600 1,500 Climbing FlightAware ADS-B
05:55PM 31.1793 -94.7038 33° Northeast 531 611 27,300 1,980 Climbing FlightAware ADS-B
05:55PM 31.2459 -94.6576 31° Northeast 521 600 28,700 2,460 Climbing FlightAware ADS-B
05:56PM 31.3098 -94.6147 30° Northeast 516 594 29,900 2,100 Climbing FlightAware ADS-B
05:56PM 31.3735 -94.5714 30° Northeast 516 594 30,900 1,980 Climbing FlightAware ADS-B
05:57PM 31.4380 -94.5271 30° Northeast 512 589 32,000 2,220 Climbing FlightAware ADS-B
05:58PM 31.4997 -94.4844 31° Northeast 507 583 33,200 2,160 Climbing FlightAware ADS-B
05:58PM 31.5601 -94.4423 31° Northeast 506 582 34,200 1,920 Climbing FlightAware ADS-B
05:59PM 31.6246 -94.3972 31° Northeast 503 579 35,200 1,800 Climbing FlightAware ADS-B
05:59PM 31.6860 -94.3542 31° Northeast 501 577 36,100 1,680 Climbing FlightAware ADS-B
06:00PM 31.7797 -94.2883 31° Northeast 501 577 37,400 1,440 Climbing FlightAware ADS-B
06:00PM 31.8481 -94.2403 31° Northeast 501 577 38,100 1,200 Climbing FlightAware ADS-B
06:01PM 31.9141 -94.1939 31° Northeast 501 577 38,800 1,200 Climbing FlightAware ADS-B
06:02PM 31.9828 -94.1457 31° Northeast 499 574 39,500 1,020 Climbing FlightAware ADS-B
06:03PM 32.1100 -94.0560 31° Northeast 498 573 40,500 660 Climbing FlightAware
06:03PM 32.1760 -94.0090 31° Northeast 498 573 40,700 120 Climbing FlightAware
06:04PM 32.2370 -93.9660 31° Northeast 498 573 40,700  Level FlightAware
06:05PM 32.3390 -93.8930 31° Northeast 498 573 40,700  Level FlightAware
06:05PM 32.4000 -93.8500 31° Northeast 498 573 40,700  Level FlightAware
06:06PM 32.4800 -93.7930 31° Northeast 498 573 40,700  Level FlightAware
06:07PM 32.5420 -93.7490 31° Northeast 498 573 40,700  Level FlightAware
06:08PM 32.6230 -93.6910 31° Northeast 498 573 40,700  Level FlightAware
06:08PM 32.6830 -93.6480 31° Northeast 498 573 40,700  Level FlightAware
06:09PM 32.7660 -93.5900 30° Northeast 498 573 40,700  Level FlightAware
06:10PM 32.8260 -93.5460 32° Northeast 498 573 40,700  Level FlightAware
06:10PM 32.9030 -93.4910 31° Northeast 498 573 40,700  Level FlightAware
06:11PM 32.9640 -93.4480 31° Northeast 498 573 40,700 180 Level FlightAware
06:12PM 33.2020 -93.2750 31° Northeast 493 567 41,000 180 Climbing FlightAware
06:13PM 33.2620 -93.2320 31° Northeast 493 567 41,000  Level FlightAware
06:13PM 33.3230 -93.1880 31° Northeast 493 567 41,000  Level FlightAware
06:14PM 33.4050 -93.1290 31° Northeast 493 567 41,000  Level FlightAware
06:15PM 33.4660 -93.0850 31° Northeast 493 567 41,000  Level FlightAware
06:16PM 33.5480 -93.0260 31° Northeast 493 567 41,000  Level FlightAware
06:16PM 33.6070 -92.9830 31° Northeast 493 567 41,000  Level FlightAware
06:18PM 33.7490 -92.8810 31° Northeast 493 567 41,000  Level FlightAware
06:18PM 33.8080 -92.8380 31° Northeast 493 567 41,000  Level FlightAware
06:19PM 33.8720 -92.7920 31° Northeast 493 567 41,000  Level FlightAware
06:19PM 33.9310 -92.7490 31° Northeast 493 567 41,000  Level FlightAware
06:21PM 34.0510 -92.6620 31° Northeast 493 567 41,000  Level FlightAware
06:21PM 34.1130 -92.6180 30° Northeast 493 567 41,000  Level FlightAware
06:22PM 34.2039 -92.0639 30° Northeast 500 575 41,000  Level Kansas City Center
06:23PM 34.3214 -91.9192 45° Northeast 504 580 41,000  Level Kansas City Center
06:29PM 34.9650 -91.5240 45° Northeast 492 566 41,000  Level FlightAware
06:30PM 35.1070 -91.5060 North 492 566 41,000  Level FlightAware
06:31PM 35.1990 -91.4940 North 492 566 41,000  Level FlightAware
06:32PM 35.3250 -91.4730 North 491 565 41,000  Level FlightAware
06:32PM 35.4210 -91.4600 North 489 563 41,000  Level FlightAware
06:33PM 35.5260 -91.4440 North 486 559 41,000  Level FlightAware
06:34PM 35.6140 -91.4310 North 482 555 41,000  Level FlightAware
06:34PM 35.7120 -91.4170 North 481 554 41,000  Level FlightAware
06:35PM 35.7870 -91.4060 North 483 556 41,000  Level FlightAware
06:36PM 35.8760 -91.3940 North 483 556 41,000  Level FlightAware
06:36PM 35.9750 -91.3790 North 485 558 41,000  Level FlightAware
06:37PM 36.0520 -91.3680 North 483 556 41,000  Level FlightAware
06:38PM 36.1430 -91.3550 North 486 559 41,000  Level FlightAware
06:38PM 36.2440 -91.3400 North 488 562 41,000  Level FlightAware
06:39PM 36.3410 -91.3260 North 490 564 41,000  Level FlightAware
06:40PM 36.4310 -91.3130 North 491 565 41,000  Level FlightAware
06:41PM 36.5320 -91.2980 North 491 565 41,000  Level FlightAware
06:41PM 36.6210 -91.2850 North 493 567 41,000  Level FlightAware
06:42PM 36.7090 -91.2720 North 499 574 41,000  Level FlightAware
06:42PM 36.7950 -91.2590 North 497 572 41,000  Level FlightAware
06:43PM 36.8960 -91.2440 North 493 567 41,000  Level FlightAware
06:44PM 36.9730 -91.2330 North 492 566 41,000  Level FlightAware
06:45PM 37.0870 -91.2160 North 492 566 41,000  Level FlightAware
06:45PM 37.1760 -91.2030 North 492 566 41,000  Level FlightAware
06:46PM 37.2400 -91.1930 North 490 564 41,000  Level FlightAware
06:46PM 37.3430 -91.1780 North 491 565 41,000  Level FlightAware
06:47PM 37.4270 -91.1650 North 491 565 41,000  Level FlightAware
06:48PM 37.5490 -91.1480 North 492 566 41,000  Level FlightAware
06:49PM 37.6180 -91.1390 North 492 566 41,000  Level FlightAware
06:50PM 37.7100 -91.1270 North 492 566 41,000  Level FlightAware
06:50PM 37.8470 -91.1020 North 494 568 41,000  Level FlightAware
06:51PM 37.9340 -91.0880 North 492 566 41,000  Level FlightAware
06:51PM 38.0090 -91.0770 North 490 564 41,000  Level FlightAware
06:52PM 38.1140 -91.0610 North 488 562 41,000  Level FlightAware
06:53PM 38.2030 -91.0470 North 488 562 41,000  Level FlightAware
06:53PM 38.2850 -91.0350 North 489 563 41,000  Level FlightAware
06:54PM 38.3770 -91.0220 North 489 563 41,000  Level FlightAware
06:55PM 38.4460 -91.0130 North 489 563 41,000  Level FlightAware
06:56PM 38.5910 -90.9870 North 488 562 41,000  Level FlightAware
06:56PM 38.6850 -90.9690 North 491 565 41,000  Level FlightAware
06:57PM 38.7650 -90.9450 13° North 491 565 41,000  Level FlightAware
06:58PM 38.8600 -90.8820 27° Northeast 496 571 41,000  Level FlightAware
06:59PM 38.9730 -90.8200 23° Northeast 496 571 41,000  Level FlightAware
06:59PM 39.0420 -90.7830 23° Northeast 496 571 41,000 -1,140 Level FlightAware
07:00PM 39.1930 -90.7000 23° Northeast 507 583 39,100 -1,620 Descending FlightAware
07:01PM 39.2920 -90.6460 23° Northeast 508 585 38,000 -1,620 Descending FlightAware
07:02PM 39.3810 -90.5970 23° Northeast 517 595 36,800 -1,500 Descending FlightAware
07:02PM 39.4600 -90.5530 23° Northeast 508 585 36,100 -1,320 Descending FlightAware
07:03PM 39.5520 -90.5020 23° Northeast 506 582 35,100 -1,680 Descending FlightAware
07:04PM 39.6390 -90.4540 23° Northeast 514 592 33,800 -1,500 Descending FlightAware
07:05PM 39.7410 -90.3980 23° Northeast 528 608 33,000 -600 Descending FlightAware
07:05PM 39.8260 -90.3500 23° Northeast 524 603 33,000  Level FlightAware
07:06PM 39.9260 -90.2940 23° Northeast 521 600 33,000  Level FlightAware
07:07PM 40.0050 -90.2490 24° Northeast 518 596 33,000  Level FlightAware
07:07PM 40.0920 -90.2010 23° Northeast 518 596 33,000  Level FlightAware
07:08PM 40.1860 -90.1470 24° Northeast 519 597 33,000  Level FlightAware
07:09PM 40.2810 -90.0930 23° Northeast 521 600 33,000  Level FlightAware
07:09PM 40.3590 -90.0490 23° Northeast 521 600 33,000  Level FlightAware
07:10PM 40.4490 -89.9980 23° Northeast 518 596 33,000 -540 Level FlightAware
07:11PM 40.5390 -89.9460 24° Northeast 511 588 32,300 -1,200 Descending FlightAware
07:11PM 40.6130 -89.9040 23° Northeast 502 578 31,500 -1,440 Descending FlightAware
07:12PM 40.7010 -89.8540 23° Northeast 491 565 30,500 -1,620 Descending FlightAware
07:13PM 40.7950 -89.7990 24° Northeast 486 559 29,300 -1,740 Descending FlightAware
07:13PM 40.8740 -89.7530 24° Northeast 486 559 28,200 -1,860 Descending FlightAware
07:14PM 40.9530 -89.6680 39° Northeast 490 564 26,700 -1,980 Descending FlightAware
07:15PM 41.0060 -89.5770 52° Northeast 480 552 25,400 -2,100 Descending FlightAware
07:15PM 41.0590 -89.4870 52° Northeast 467 537 24,000 -2,100 Descending FlightAware
07:16PM 41.1080 -89.4040 52° Northeast 455 524 22,800 -2,100 Descending FlightAware
07:17PM 41.1640 -89.3090 52° Northeast 446 513 21,200 -2,100 Descending FlightAware
07:17PM 41.2140 -89.2240 52° Northeast 439 505 19,900 -2,040 Descending FlightAware
07:18PM 41.2700 -89.1280 52° Northeast 424 488 18,400 -1,980 Descending FlightAware
07:19PM 41.3210 -89.0390 53° Northeast 413 475 17,000 -2,040 Descending FlightAware
07:20PM 41.3670 -88.9600 52° Northeast 401 461 15,600 -2,100 Descending FlightAware
07:20PM 41.4160 -88.8750 52° Northeast 388 447 14,100 -2,100 Descending FlightAware
07:21PM 41.4580 -88.8030 52° Northeast 382 440 12,800 -2,100 Descending FlightAware
07:21PM 41.4940 -88.7400 53° Northeast 373 429 11,600 -1,200 Descending FlightAware
07:22PM 41.5340 -88.6530 58° Northeast 354 407 11,200 -300 Descending FlightAware
07:23PM 41.5630 -88.5790 62° Northeast 356 410 11,200  Level FlightAware
07:24PM 41.5950 -88.5010 61° Northeast 358 412 11,200 -420 Level FlightAware
07:24PM 41.6310 -88.4290 56° Northeast 348 400 10,700 -780 Descending FlightAware
07:25PM 41.6700 -88.3620 52° Northeast 346 398 10,200 -420 Descending FlightAware
07:26PM 41.7100 -88.2930 52° Northeast 349 402 10,200 -240 Level FlightAware
07:26PM 41.7540 -88.2170 52° Northeast 325 374 9,900 -780 Descending FlightAware
07:27PM 41.7790 -88.1750 51° Northeast 299 344 9,300 -1,200 Descending FlightAware
07:27PM 41.8030 -88.1340 52° Northeast 292 336 8,800 -1,200 Descending FlightAware
07:27PM 41.8130 -88.1170 52° Northeast 292 336 8,500 -1,440 Descending FlightAware
07:28PM 41.8340 -88.0800 53° Northeast 293 337 7,900 -1,320 Descending FlightAware
07:28PM 41.8540 -88.0440 53° Northeast 291 335 7,400 -1,080 Descending FlightAware
07:29PM 41.8660 -88.0210 55° Northeast 291 335 7,200 -300 Descending FlightAware
07:29PM 41.8830 -87.9760 63° Northeast 293 337 7,200  Level FlightAware
07:29PM 41.8840 -87.9250 88° East 294 338 7,200  Level FlightAware
07:30PM 41.8840 -87.8860 90° East 274 315 7,200  Level FlightAware
07:30PM 41.8840 -87.8470 90° East 249 287 7,200 -900 Level FlightAware
07:31PM 41.8840 -87.7840 90° East 209 241 6,200 -1,440 Descending FlightAware
07:31PM 41.8840 -87.7710 90° East 206 237 5,900 -2,100 Descending FlightAware
07:32PM 41.8840 -87.7460 90° East 207 238 5,100 -2,280 Descending FlightAware
07:32PM 41.8900 -87.7190 73° East 211 243 4,400 -1,500 Descending FlightAware
07:32PM 41.9030 -87.7090 30° Northeast 209 241 4,200 -720 Descending FlightAware
07:32PM 41.9130 -87.7080 North 205 236 4,100 -900 Descending FlightAware
07:33PM 41.9360 -87.7220 336° Northwest 184 212 3,600 -1,260 Descending FlightAware
07:33PM 41.9540 -87.7420 320° Northwest 173 199 2,900 -1,260 Descending FlightAware
07:34PM 41.9630 -87.7540 315° West 161 185 2,700 -840 Descending FlightAware
07:34PM 41.9690 -87.7780 289° West 144 166 2,300 -780 Descending FlightAware
07:34PM 41.9690 -87.8010 270° West 135 155 2,000 -720 Descending FlightAware
07:35PM 41.9690 -87.8070 270° West 132 152 1,900 -780 Descending FlightAware
07:35PM 41.9690 -87.8330 270° West 135 155 1,500 -660 Descending FlightAware
07:35PM 41.9690 -87.8540 270° West 135 155 1,300 -660 Descending FlightAware
07:36PM 41.9690 -87.8810 270° West 133 153 900 -480 Descending FlightAware
07:37PM 41.9690 -87.9050 270° West 133 153 800 -240 Descending FlightAware